Time;durP1;ratioP1;P1;durP2;ratioP2;P2;SDS_P1;SDS_P2;PMS_P1;PMS_P2;Temp;Humidity;BMP_temperature;BMP_pressure;BME280_temperature;BME280_humidity;BME280_pressure;Samples;Min_cycle;Max_cycle;Signal;HPM_P1;HPM_P2
2022/10/19 00:00:47;;;;;;;65.93;36.65;;;;;;;8.36;92.19;101019.03;5007327;28;20053;-72
2022/10/19 00:03:12;;;;;;;62.28;35.25;;;;;;;8.44;92.13;101033.56;5009017;28;20030;-73
2022/10/19 00:05:37;;;;;;;60.65;34.97;;;;;;;8.41;92.39;101022.22;5008740;28;20523;-72
2022/10/19 00:08:03;;;;;;;66.20;35.08;;;;;;;8.22;92.39;100995.06;5007797;28;20108;-74
2022/10/19 00:10:28;;;;;;;57.60;35.00;;;;;;;8.28;92.23;101008.84;5008769;28;20058;-73
2022/10/19 00:12:54;;;;;;;55.45;34.60;;;;;;;8.34;92.11;101019.13;5008303;28;20042;-73
2022/10/19 00:15:20;;;;;;;61.30;34.63;;;;;;;8.19;91.70;101003.22;5008596;28;20030;-74
2022/10/19 00:17:45;;;;;;;59.75;33.92;;;;;;;8.34;91.93;101028.94;5008032;28;20042;-72
2022/10/19 00:20:11;;;;;;;60.40;34.25;;;;;;;8.39;91.96;101037.53;5008183;28;20040;-72
2022/10/19 00:22:37;;;;;;;54.28;32.08;;;;;;;8.29;92.01;101021.22;5007282;28;20033;-71
2022/10/19 00:25:04;;;;;;;52.72;30.35;;;;;;;8.30;92.61;101008.72;5006786;28;20072;-73
2022/10/19 00:27:29;;;;;;;56.35;31.30;;;;;;;8.23;92.69;100994.94;5008286;28;20061;-73
2022/10/19 00:29:55;;;;;;;53.17;31.05;;;;;;;8.29;92.40;101012.38;5008065;28;20065;-73
2022/10/19 00:32:20;;;;;;;64.80;33.60;;;;;;;8.29;92.38;101026.56;5009025;28;20473;-73
2022/10/19 00:34:46;;;;;;;55.03;32.17;;;;;;;8.43;92.23;101031.00;5008225;28;20033;-73
2022/10/19 00:37:11;;;;;;;52.55;30.80;;;;;;;8.44;92.00;101019.34;5008558;28;20140;-73
2022/10/19 00:39:38;;;;;;;55.22;30.23;;;;;;;8.25;92.48;100985.00;5011616;28;20030;-73
2022/10/19 00:42:03;;;;;;;51.67;30.73;;;;;;;8.30;92.41;100990.91;5012053;28;20475;-73
2022/10/19 00:44:28;;;;;;;48.08;28.85;;;;;;;8.41;92.12;101006.19;5012434;28;20087;-73
2022/10/19 00:46:59;;;;;;;55.17;28.80;;;;;;;8.29;92.75;100986.50;5011815;28;20033;-73
2022/10/19 00:49:44;;;;;;;52.60;30.08;;;;;;;8.41;92.75;101001.69;5011676;28;20483;-73
2022/10/19 00:52:15;;;;;;;50.92;29.40;;;;;;;8.42;92.93;101002.56;4992618;28;20384;-72
2022/10/19 00:54:42;;;;;;;47.35;27.92;;;;;;;8.32;93.29;100975.59;5001593;28;20029;-73
2022/10/19 00:57:09;;;;;;;47.03;29.10;;;;;;;8.41;92.79;100982.13;5012021;28;20100;-72
2022/10/19 00:59:36;;;;;;;51.33;28.27;;;;;;;8.48;93.16;100988.78;5011342;28;20041;-73
2022/10/19 01:02:03;;;;;;;46.15;28.70;;;;;;;8.35;93.56;100966.53;5011459;28;20042;-73
2022/10/19 01:04:31;;;;;;;46.97;29.27;;;;;;;8.52;93.48;100992.97;5011848;28;20034;-73
2022/10/19 01:06:58;;;;;;;56.10;28.98;;;;;;;8.41;93.99;100969.63;5011608;28;20034;-72
2022/10/19 01:09:23;;;;;;;51.13;27.65;;;;;;;8.52;93.83;100966.22;5012401;28;20056;-71
2022/10/19 01:12:09;;;;;;;49.67;28.83;;;;;;;8.65;93.86;100973.25;5011826;28;20065;-71
2022/10/19 01:14:47;;;;;;;41.67;27.42;;;;;;;8.67;94.06;100982.06;5012837;28;20052;-71
2022/10/19 01:17:22;;;;;;;46.28;28.75;;;;;;;8.70;94.15;100975.63;4998274;28;20096;-71
2022/10/19 01:20:06;;;;;;;46.55;27.88;;;;;;;8.64;94.08;100946.66;5012284;28;20030;-71
2022/10/19 01:22:35;;;;;;;;;;;;;;;8.74;94.17;100955.75;5012859;28;20034;-71
2022/10/19 01:25:37;;;;;;;44.17;26.30;;;;;;;8.77;93.94;100967.06;5012542;28;19913;-71
2022/10/19 01:28:12;;;;;;;49.13;27.50;;;;;;;8.78;93.63;100951.88;4993089;28;20034;-71
2022/10/19 01:31:00;;;;;;;50.40;28.42;;;;;;;8.70;93.79;100941.72;5001468;28;20038;-70
2022/10/19 01:33:54;;;;;;;48.30;28.58;;;;;;;8.65;93.75;100929.66;5011043;28;20037;-70
2022/10/19 01:36:46;;;;;;;43.35;26.58;;;;;;;8.71;93.79;100939.91;5012516;28;20026;-71
2022/10/19 01:39:40;;;;;;;45.90;26.45;;;;;;;8.77;93.75;100945.69;5012587;28;20050;-71
2022/10/19 01:42:11;;;;;;;42.60;26.17;;;;;;;8.80;93.57;100949.94;5007643;28;20481;-70
2022/10/19 01:44:36;;;;;;;46.67;26.88;;;;;;;8.82;93.86;100945.34;4993145;28;20047;-70
2022/10/19 01:47:07;;;;;;;48.17;28.30;;;;;;;8.73;93.87;100921.94;5012255;28;20424;-72
2022/10/19 01:49:46;;;;;;;42.42;26.20;;;;;;;8.70;94.05;100914.13;5011002;28;20053;-71
2022/10/19 01:52:16;;;;;;;41.92;25.05;;;;;;;8.84;93.95;100930.91;5001849;28;20756;-71
2022/10/19 01:54:46;;;;;;;45.13;26.60;;;;;;;8.88;94.33;100928.88;5012152;28;20076;-70
2022/10/19 01:57:16;;;;;;;40.33;24.45;;;;;;;8.92;94.00;100927.69;5002731;28;20029;-70
2022/10/19 01:59:43;;;;;;;42.03;25.23;;;;;;;8.88;93.88;100916.38;4992085;28;20057;-71
2022/10/19 02:02:10;;;;;;;40.70;23.77;;;;;;;8.89;93.77;100909.19;5010886;28;20060;-71
2022/10/19 02:04:38;;;;;;;36.00;22.92;;;;;;;8.90;93.49;100908.25;5011769;28;20030;-71
2022/10/19 02:07:06;;;;;;;39.45;23.17;;;;;;;8.80;93.56;100891.09;5011443;28;20065;-70
2022/10/19 02:09:32;;;;;;;36.92;22.00;;;;;;;8.85;93.76;100894.31;5012063;28;20498;-70
2022/10/19 02:12:02;;;;;;;37.03;21.77;;;;;;;8.90;93.24;100902.88;5011696;28;20034;-70
2022/10/19 02:14:50;;;;;;;32.78;21.40;;;;;;;8.94;93.28;100893.66;5011549;28;20121;-70
2022/10/19 02:17:20;;;;;;;31.80;19.92;;;;;;;8.94;93.11;100882.97;5010271;28;20100;-70
2022/10/19 02:19:46;;;;;;;31.92;19.73;;;;;;;8.96;93.26;100891.72;5010381;28;20022;-70
2022/10/19 02:22:12;;;;;;;34.03;19.95;;;;;;;8.93;93.08;100875.88;5011523;28;20128;-72
2022/10/19 02:24:37;;;;;;;27.63;19.40;;;;;;;8.89;93.43;100879.75;5010807;28;20096;-70
2022/10/19 02:27:05;;;;;;;30.92;19.52;;;;;;;8.78;93.75;100847.59;5011082;28;20042;-70
2022/10/19 02:29:36;;;;;;;26.77;19.15;;;;;;;8.87;93.83;100857.63;5011060;28;20033;-71
2022/10/19 02:32:02;;;;;;;30.73;19.55;;;;;;;9.06;94.14;100882.06;5011454;28;20030;-71
2022/10/19 02:34:28;;;;;;;29.70;19.17;;;;;;;9.09;94.16;100889.88;5011397;28;20029;-71
2022/10/19 02:36:54;;;;;;;28.40;18.67;;;;;;;9.12;94.22;100890.50;5010837;28;20736;-71
2022/10/19 02:39:20;;;;;;;24.25;17.45;;;;;;;8.96;94.18;100854.25;5009890;28;20479;-71
2022/10/19 02:41:51;;;;;;;28.98;19.02;;;;;;;9.15;93.84;100878.72;5011339;28;20022;-71
2022/10/19 02:44:29;;;;;;;31.25;19.00;;;;;;;9.10;93.50;100879.06;5009744;28;20129;-71
2022/10/19 02:47:06;;;;;;;29.15;18.60;;;;;;;9.13;93.46;100872.66;5010885;28;20064;-71
2022/10/19 02:49:34;;;;;;;33.67;19.52;;;;;;;9.18;93.29;100879.38;5011052;28;20506;-71
2022/10/19 02:52:06;;;;;;;30.75;18.58;;;;;;;9.15;93.77;100871.56;5009379;28;20244;-71
2022/10/19 02:54:32;;;;;;;27.10;19.27;;;;;;;9.04;93.18;100851.91;5010606;28;20026;-71
2022/10/19 02:56:58;;;;;;;28.73;18.23;;;;;;;9.13;93.57;100884.19;5008981;28;20095;-71
2022/10/19 02:59:24;;;;;;;32.45;19.33;;;;;;;9.09;93.06;100882.69;5010935;28;20441;-69
2022/10/19 03:01:50;;;;;;;29.98;19.45;;;;;;;9.08;93.60;100882.81;5009071;28;20050;-71
2022/10/19 03:04:16;;;;;;;31.70;19.88;;;;;;;8.98;93.46;100873.75;5011140;28;20091;-71
2022/10/19 03:06:42;;;;;;;35.53;19.70;;;;;;;9.07;93.62;100902.53;5009016;28;20678;-71
2022/10/19 03:09:07;;;;;;;32.83;20.25;;;;;;;8.96;94.05;100881.03;5010881;28;20372;-73
2022/10/19 03:11:33;;;;;;;30.77;19.08;;;;;;;8.98;94.10;100887.13;5010472;28;20062;-75
2022/10/19 03:13:59;;;;;;;29.58;20.02;;;;;;;9.07;94.03;100891.81;5010855;28;20538;-73
2022/10/19 03:16:24;;;;;;;32.15;19.58;;;;;;;8.77;93.73;100846.72;5010786;28;20126;-72
2022/10/19 03:18:50;;;;;;;33.13;19.63;;;;;;;9.03;93.85;100901.03;5010328;28;20520;-74
2022/10/19 03:21:16;;;;;;;30.67;20.38;;;;;;;9.02;93.74;100901.97;5010919;28;20030;-73
2022/10/19 03:23:42;;;;;;;35.20;20.08;;;;;;;8.90;94.05;100885.00;5010562;28;20057;-73
2022/10/19 03:26:11;;;;;;;30.98;20.65;;;;;;;8.92;93.97;100887.56;5014201;28;20029;-72
2022/10/19 03:28:36;;;;;;;29.38;20.30;;;;;;;8.98;94.00;100900.50;5016090;28;20025;-72
2022/10/19 03:31:02;;;;;;;29.75;20.75;;;;;;;8.83;94.53;100883.72;5020400;28;20079;-72
2022/10/19 03:33:27;;;;;;;33.92;21.58;;;;;;;9.01;94.59;100909.19;5008967;28;20057;-73
2022/10/19 03:36:30;;;;;;;34.88;22.42;;;;;;;9.04;94.82;100911.63;5009947;28;20040;-73
2022/10/19 03:38:59;;;;;;;35.65;22.13;;;;;;;9.11;94.74;100901.31;4994094;28;20468;-73
2022/10/19 03:41:29;;;;;;;33.03;22.00;;;;;;;9.17;94.81;100906.22;5005890;28;20030;-73
2022/10/19 03:43:56;;;;;;;36.28;23.15;;;;;;;9.20;94.83;100903.34;4999535;28;20031;-73
2022/10/19 03:46:22;;;;;;;32.75;22.38;;;;;;;9.09;94.56;100872.00;5001873;28;20456;-73
2022/10/19 03:48:47;;;;;;;35.70;23.38;;;;;;;9.39;94.36;100903.72;4993975;28;20080;-73
2022/10/19 03:51:17;;;;;;;33.08;21.05;;;;;;;9.38;94.24;100901.97;5003982;28;20053;-72
2022/10/19 03:53:43;;;;;;;34.55;21.98;;;;;;;9.41;93.83;100893.72;5009984;28;20075;-70
2022/10/19 03:56:17;;;;;;;35.25;22.73;;;;;;;9.57;93.27;100905.00;5008501;28;20587;-70
2022/10/19 03:58:45;;;;;;;35.70;23.23;;;;;;;9.52;92.84;100887.56;5010016;28;20030;-71
2022/10/19 04:01:21;;;;;;;35.22;22.45;;;;;;;9.49;92.82;100887.81;5009691;28;20092;-70
2022/10/19 04:03:51;;;;;;;39.72;23.95;;;;;;;9.63;92.58;100904.56;5010196;28;20038;-73
2022/10/19 04:06:17;;;;;;;36.03;21.95;;;;;;;9.77;92.12;100901.69;5009476;28;20030;-72
2022/10/19 04:08:46;;;;;;;33.95;23.10;;;;;;;9.64;92.32;100882.16;5009700;28;20038;-73
2022/10/19 04:11:13;;;;;;;32.70;23.83;;;;;;;9.69;92.33;100882.66;5002250;28;20030;-72
2022/10/19 04:13:38;;;;;;;37.85;23.55;;;;;;;9.61;92.38;100873.50;5002015;28;20044;-73
2022/10/19 04:16:05;;;;;;;33.20;23.13;;;;;;;9.76;92.56;100904.47;5007495;28;20045;-73
2022/10/19 04:18:30;;;;;;;32.45;21.92;;;;;;;9.73;92.79;100902.03;5005518;28;20045;-73
2022/10/19 04:21:00;;;;;;;36.58;22.42;;;;;;;9.72;92.96;100901.19;5008537;28;20408;-73
2022/10/19 04:23:27;;;;;;;36.58;23.02;;;;;;;9.60;93.12;100886.03;5005678;28;20075;-72
2022/10/19 04:25:59;;;;;;;34.17;23.08;;;;;;;9.63;93.35;100896.50;5002124;28;20544;-72
2022/10/19 04:28:24;;;;;;;33.17;22.48;;;;;;;9.70;93.47;100903.13;5004529;28;20028;-73
2022/10/19 04:30:49;;;;;;;35.88;23.38;;;;;;;9.63;93.38;100891.16;5002652;28;20057;-72
2022/10/19 04:33:17;;;;;;;33.28;23.40;;;;;;;9.72;93.58;100900.31;5005643;28;20025;-73
2022/10/19 04:35:42;;;;;;;41.85;25.85;;;;;;;9.83;93.17;100911.09;5003350;28;21420;-71
2022/10/19 04:38:08;;;;;;;31.45;22.77;;;;;;;9.74;93.17;100882.31;5000078;28;20037;-72
2022/10/19 04:40:35;;;;;;;36.05;23.27;;;;;;;9.83;93.06;100895.03;5005509;28;20041;-72
2022/10/19 04:43:01;;;;;;;34.10;22.58;;;;;;;9.88;93.50;100903.56;5002839;28;20041;-73
2022/10/19 04:45:26;;;;;;;33.65;23.33;;;;;;;9.90;93.48;100897.09;5010044;28;20472;-72
2022/10/19 04:47:55;;;;;;;34.20;22.70;;;;;;;9.81;93.37;100870.19;5003938;28;20357;-72
2022/10/19 04:50:21;;;;;;;31.10;22.67;;;;;;;9.88;93.81;100882.13;5001664;28;20459;-73
2022/10/19 04:52:47;;;;;;;31.85;23.60;;;;;;;9.95;94.36;100894.94;5003786;28;20048;-73
2022/10/19 04:55:12;;;;;;;37.38;23.52;;;;;;;9.99;94.02;100888.38;5002171;28;20025;-73
2022/10/19 04:57:38;;;;;;;37.10;22.70;;;;;;;10.01;94.13;100885.59;5002263;28;20041;-74
2022/10/19 05:00:04;;;;;;;30.23;21.42;;;;;;;9.94;94.29;100854.88;4999900;28;20038;-73
2022/10/19 05:02:29;;;;;;;31.13;22.58;;;;;;;10.02;94.47;100872.06;5014292;28;20030;-72
2022/10/19 05:04:55;;;;;;;32.50;21.17;;;;;;;10.11;94.64;100863.34;5005658;28;20186;-73
2022/10/19 05:07:20;;;;;;;35.13;22.83;;;;;;;10.18;94.86;100883.34;5012935;28;20076;-73
2022/10/19 05:09:45;;;;;;;34.75;23.10;;;;;;;10.24;94.46;100882.88;5010829;28;20088;-73
2022/10/19 05:12:11;;;;;;;40.90;22.85;;;;;;;10.14;94.00;100846.19;5012803;28;20030;-73
2022/10/19 05:14:36;;;;;;;34.17;21.02;;;;;;;10.44;93.07;100887.53;5012002;28;20476;-73
2022/10/19 05:17:02;;;;;;;31.67;21.95;;;;;;;10.47;92.45;100875.72;5012244;28;20048;-71
2022/10/19 05:19:27;;;;;;;37.85;21.83;;;;;;;10.52;91.62;100881.56;5012553;28;20021;-70
2022/10/19 05:21:52;;;;;;;34.10;22.27;;;;;;;10.46;91.54;100874.88;5012054;28;20029;-70
2022/10/19 05:24:18;;;;;;;40.50;22.98;;;;;;;10.33;91.77;100854.50;5011515;28;20117;-70
2022/10/19 05:26:43;;;;;;;39.15;23.88;;;;;;;10.46;91.86;100876.69;5011865;28;20026;-68
2022/10/19 05:29:11;;;;;;;39.38;22.70;;;;;;;10.51;91.56;100885.25;5012552;28;20419;-69
2022/10/19 05:31:37;;;;;;;40.28;23.88;;;;;;;10.40;91.76;100875.34;5010600;28;20037;-70
2022/10/19 05:34:03;;;;;;;38.47;22.70;;;;;;;10.44;91.87;100881.31;5010615;28;20468;-69
2022/10/19 05:36:33;;;;;;;39.83;23.20;;;;;;;10.65;90.55;100896.59;5011591;28;20092;-70
2022/10/19 05:39:00;;;;;;;39.45;23.17;;;;;;;10.60;90.99;100890.72;5011887;28;20084;-70
2022/10/19 05:41:26;;;;;;;47.70;24.88;;;;;;;10.63;90.34;100892.31;5012053;28;20084;-70
2022/10/19 05:43:55;;;;;;;39.90;24.05;;;;;;;10.55;91.02;100892.91;5011588;28;20042;-69
2022/10/19 05:46:22;;;;;;;43.08;22.98;;;;;;;10.58;91.43;100895.34;5010808;28;20033;-70
2022/10/19 05:48:48;;;;;;;41.47;24.23;;;;;;;10.58;91.62;100898.03;5011315;28;20092;-70
2022/10/19 05:51:16;;;;;;;38.40;23.20;;;;;;;10.48;91.89;100872.91;5008129;28;20125;-70
2022/10/19 05:53:42;;;;;;;38.25;23.98;;;;;;;10.64;92.04;100910.13;5008683;28;20030;-69
2022/10/19 05:56:11;;;;;;;39.08;22.88;;;;;;;10.52;92.15;100879.75;5008331;28;20041;-69
2022/10/19 05:58:37;;;;;;;42.35;22.27;;;;;;;10.64;92.57;100902.91;5011296;28;20025;-72
2022/10/19 06:01:03;;;;;;;33.83;22.75;;;;;;;10.67;91.97;100896.44;5009322;28;20049;-72
2022/10/19 06:03:29;;;;;;;38.67;23.58;;;;;;;10.53;92.22;100880.59;5010886;28;20034;-71
2022/10/19 06:05:54;;;;;;;36.67;22.83;;;;;;;10.47;92.66;100870.34;5010069;28;20030;-71
2022/10/19 06:08:21;;;;;;;36.00;23.88;;;;;;;10.68;92.65;100892.81;5011369;28;20464;-73
2022/10/19 06:10:47;;;;;;;42.20;23.38;;;;;;;10.59;93.14;100880.13;5010586;28;20045;-73
2022/10/19 06:13:14;;;;;;;34.15;23.27;;;;;;;10.78;93.81;100918.78;5010911;28;20518;-73
2022/10/19 06:15:40;;;;;;;33.55;23.27;;;;;;;10.79;93.76;100930.38;5010482;28;20034;-72
2022/10/19 06:18:07;;;;;;;32.63;22.92;;;;;;;10.82;93.76;100932.81;5010745;28;20044;-72
2022/10/19 06:20:39;;;;;;;34.63;22.88;;;;;;;10.89;93.59;100932.22;5010469;28;20036;-72
2022/10/19 06:23:06;;;;;;;35.40;22.77;;;;;;;10.89;94.62;100948.31;5010416;28;20969;-71
2022/10/19 06:25:33;;;;;;;42.38;23.98;;;;;;;10.92;95.10;100945.38;5008802;28;20140;-73
2022/10/19 06:27:59;;;;;;;36.25;22.85;;;;;;;10.97;95.29;100955.75;5010010;28;20030;-72
2022/10/19 06:30:25;;;;;;;37.35;23.17;;;;;;;11.00;95.07;100966.25;5009234;28;20037;-71
2022/10/19 06:32:50;;;;;;;43.15;25.27;;;;;;;10.93;95.24;100951.63;5010709;28;20811;-71
2022/10/19 06:35:16;;;;;;;44.85;25.67;;;;;;;11.01;95.57;100955.41;5010178;28;20476;-73
2022/10/19 06:37:42;;;;;;;41.88;25.85;;;;;;;11.01;95.36;100946.47;5009910;28;20112;-72
2022/10/19 06:40:08;;;;;;;44.50;24.75;;;;;;;11.10;95.92;100957.31;5009126;28;20065;-70
2022/10/19 06:42:37;;;;;;;34.20;22.98;;;;;;;11.00;95.66;100926.81;5007622;28;20029;-70
2022/10/19 06:45:07;;;;;;;36.60;24.95;;;;;;;11.18;95.09;100945.97;5010253;28;20033;-69
2022/10/19 06:47:33;;;;;;;36.40;24.48;;;;;;;11.32;94.87;100938.50;4997776;28;20034;-70
2022/10/19 06:49:59;;;;;;;35.28;23.35;;;;;;;11.44;94.77;100950.09;4998189;28;20041;-70
2022/10/19 06:52:24;;;;;;;43.70;25.20;;;;;;;11.31;94.58;100917.16;5000755;28;20401;-71
2022/10/19 06:54:50;;;;;;;38.20;24.38;;;;;;;11.53;94.47;100947.53;5000930;28;20021;-70
2022/10/19 06:57:15;;;;;;;37.95;25.10;;;;;;;11.63;93.93;100950.34;4996108;28;20591;-69
2022/10/19 06:59:41;;;;;;;37.00;23.90;;;;;;;11.54;94.36;100929.56;5009575;28;20041;-71
2022/10/19 07:02:06;;;;;;;37.47;26.20;;;;;;;11.59;94.23;100938.09;5014105;28;20038;-70
2022/10/19 07:04:32;;;;;;;42.13;28.48;;;;;;;11.75;95.06;100943.09;5010747;28;20500;-70
2022/10/19 07:06:57;;;;;;;44.25;27.42;;;;;;;11.73;94.47;100920.88;5011924;28;20049;-70
2022/10/19 07:09:22;;;;;;;37.33;26.05;;;;;;;12.06;94.81;100955.69;5010062;28;20061;-69
2022/10/19 07:11:48;;;;;;;38.88;25.58;;;;;;;12.23;94.21;100950.63;5012223;28;20017;-69
2022/10/19 07:14:13;;;;;;;31.23;23.48;;;;;;;12.33;94.13;100942.59;5022462;28;20029;-69
2022/10/19 07:16:39;;;;;;;31.73;22.45;;;;;;;12.64;94.20;100963.22;5020667;28;20439;-70
2022/10/19 07:19:04;;;;;;;38.10;24.45;;;;;;;12.81;92.71;100960.78;5014261;28;20029;-70
2022/10/19 07:21:30;;;;;;;32.35;22.92;;;;;;;12.99;90.76;100959.19;5009556;28;20469;-70
2022/10/19 07:23:56;;;;;;;31.50;21.92;;;;;;;13.21;90.07;100952.75;5013472;28;20030;-70
2022/10/19 07:26:26;;;;;;;31.45;22.10;;;;;;;13.43;88.20;100929.16;5018704;28;20491;-69
2022/10/19 07:28:54;;;;;;;34.25;22.48;;;;;;;13.91;86.99;100956.22;5001514;28;20042;-70
2022/10/19 07:31:22;;;;;;;29.08;20.92;;;;;;;14.38;85.16;100914.06;5009282;28;20120;-69
2022/10/19 07:33:54;;;;;;;31.90;20.60;;;;;;;15.44;76.76;100956.78;5028128;28;20159;-69
2022/10/19 07:36:20;;;;;;;22.98;18.50;;;;;;;16.31;71.16;100956.03;5020753;28;20476;-69
2022/10/19 07:38:46;;;;;;;24.83;18.58;;;;;;;17.07;66.64;100935.47;5009163;28;20080;-70
2022/10/19 07:41:14;;;;;;;20.75;16.65;;;;;;;18.02;63.00;100945.84;5009461;28;20030;-70
2022/10/19 07:43:41;;;;;;;23.02;15.82;;;;;;;18.60;59.02;100947.63;4995511;28;20034;-70
2022/10/19 07:46:10;;;;;;;24.70;14.23;;;;;;;19.05;56.96;100932.41;5028727;28;20043;-70
2022/10/19 07:48:36;;;;;;;25.42;13.50;;;;;;;19.42;54.42;100912.75;5018413;28;20108;-69
2022/10/19 07:51:03;;;;;;;18.00;12.43;;;;;;;20.07;52.56;100953.06;5007472;28;20037;-69
2022/10/19 07:53:29;;;;;;;20.02;12.93;;;;;;;20.21;52.03;100953.34;5023619;28;20539;-69
2022/10/19 07:55:55;;;;;;;19.95;11.95;;;;;;;19.89;52.19;100946.19;4994671;28;20053;-70
2022/10/19 07:58:20;;;;;;;25.50;12.02;;;;;;;19.41;52.30;100950.00;5015059;28;20040;-69
2022/10/19 08:00:46;;;;;;;16.40;11.18;;;;;;;19.08;53.57;100945.66;5011378;28;20471;-70
2022/10/19 08:03:11;;;;;;;28.38;12.52;;;;;;;18.63;54.24;100939.97;5011493;28;20410;-70
2022/10/19 08:05:37;;;;;;;26.08;12.57;;;;;;;18.31;55.76;100955.41;5025716;28;20028;-70
2022/10/19 08:08:03;;;;;;;17.85;11.32;;;;;;;17.86;56.72;100931.38;5027498;28;20029;-70
2022/10/19 08:10:28;;;;;;;15.20;11.70;;;;;;;17.79;57.25;100962.91;5028837;28;20021;-70
2022/10/19 08:12:54;;;;;;;22.38;11.10;;;;;;;17.53;58.94;100941.31;5028612;28;20800;-69
2022/10/19 08:15:19;;;;;;;17.75;11.82;;;;;;;17.42;59.40;100954.28;5028887;28;20036;-70
2022/10/19 08:17:45;;;;;;;26.45;12.18;;;;;;;17.15;59.86;100935.53;5028273;28;20072;-69
2022/10/19 08:20:10;;;;;;;18.95;11.30;;;;;;;17.16;60.56;100953.47;5027298;28;20021;-68
2022/10/19 08:22:36;;;;;;;18.75;12.23;;;;;;;17.00;61.65;100951.53;5028379;28;20422;-69
2022/10/19 08:25:01;;;;;;;17.98;11.32;;;;;;;16.88;61.97;100935.69;5028377;28;20037;-69
2022/10/19 08:27:28;;;;;;;20.13;11.13;;;;;;;16.78;63.18;100941.22;5028220;28;20087;-70
2022/10/19 08:29:53;;;;;;;17.65;12.05;;;;;;;16.81;64.89;100967.16;5028472;28;20757;-69
2022/10/19 08:32:19;;;;;;;16.63;11.70;;;;;;;16.78;66.04;100972.88;5028485;28;20037;-68
2022/10/19 08:34:44;;;;;;;16.42;11.45;;;;;;;16.73;66.76;100972.53;5028300;28;20045;-69
2022/10/19 08:37:10;;;;;;;14.60;11.38;;;;;;;16.71;67.25;100979.94;5028072;28;20026;-69
2022/10/19 08:39:35;;;;;;;15.02;10.57;;;;;;;16.56;68.23;100947.16;5028271;28;20052;-68
2022/10/19 08:42:15;;;;;;;12.80;9.55;;;;;;;16.59;69.36;100964.94;5027921;28;20367;-69
2022/10/19 08:44:59;;;;;;;13.27;8.70;;;;;;;16.75;69.96;100974.06;5028225;28;20426;-68
2022/10/19 08:47:34;;;;;;;11.40;9.30;;;;;;;16.77;70.33;100973.91;5028446;28;20075;-68
2022/10/19 08:49:59;;;;;;;12.88;7.55;;;;;;;16.86;70.38;100979.19;5028233;28;20017;-68
2022/10/19 08:52:31;;;;;;;12.00;7.95;;;;;;;16.91;71.33;100976.03;5027978;28;20117;-69
2022/10/19 08:54:57;;;;;;;12.23;7.50;;;;;;;17.03;71.21;100972.03;5027815;28;20471;-70
2022/10/19 08:57:32;;;;;;;11.65;6.93;;;;;;;17.12;70.99;100966.50;5026870;28;20025;-69
2022/10/19 09:00:26;;;;;;;10.15;6.53;;;;;;;17.23;70.60;100973.50;5030060;28;20069;-68
2022/10/19 09:03:04;;;;;;;8.95;5.60;;;;;;;17.36;69.55;100972.06;5008245;28;20038;-68
2022/10/19 09:05:48;;;;;;;7.68;5.93;;;;;;;17.50;68.49;100967.91;5031627;28;20037;-70
2022/10/19 09:08:13;;;;;;;14.27;5.57;;;;;;;17.71;67.69;100952.06;5031728;28;20095;-69
2022/10/19 09:10:45;;;;;;;8.55;5.43;;;;;;;18.06;66.61;100958.06;5031519;28;20037;-70
2022/10/19 09:13:21;;;;;;;7.22;5.30;;;;;;;18.54;64.80;100961.88;5031401;28;20054;-68
2022/10/19 09:15:50;;;;;;;12.85;5.85;;;;;;;19.98;60.45;100967.75;5031507;28;20382;-69
2022/10/19 09:18:18;;;;;;;10.05;7.05;;;;;;;22.52;52.78;100956.28;5031245;28;20029;-69
2022/10/19 09:20:47;;;;;;;8.77;5.85;;;;;;;24.44;47.01;100950.44;5031499;28;20036;-68
2022/10/19 09:23:20;;;;;;;6.70;4.70;;;;;;;26.27;42.48;100941.84;5031472;28;20426;-68
2022/10/19 09:25:49;;;;;;;5.82;4.93;;;;;;;27.64;39.29;100933.22;5029710;28;20030;-69
2022/10/19 09:28:44;;;;;;;11.38;5.25;;;;;;;28.71;36.78;100935.09;5031333;28;20052;-68
2022/10/19 09:31:15;;;;;;;8.02;5.35;;;;;;;29.44;35.11;100925.28;5030870;28;20034;-68
2022/10/19 09:33:42;;;;;;;10.13;5.30;;;;;;;30.24;34.44;100932.56;5031044;28;20159;-68
2022/10/19 09:36:08;;;;;;;9.93;5.22;;;;;;;30.85;33.17;100938.09;5029461;28;20029;-68
2022/10/19 09:38:34;;;;;;;10.13;5.10;;;;;;;31.01;32.82;100936.44;5029744;28;20056;-68
2022/10/19 09:41:21;;;;;;;20.55;5.18;;;;;;;30.91;32.35;100941.81;5030802;28;20033;-68
2022/10/19 09:43:52;;;;;;;8.23;4.60;;;;;;;31.67;31.28;100941.84;5030674;28;20104;-68
2022/10/19 09:46:34;;;;;;;8.85;4.70;;;;;;;32.01;30.90;100944.25;5030909;28;20029;-68
2022/10/19 09:49:02;;;;;;;7.95;3.53;;;;;;;32.31;30.42;100938.22;5030697;28;20032;-71
2022/10/19 09:51:39;;;;;;;11.55;3.30;;;;;;;32.73;29.41;100935.59;5030490;28;20056;-71
2022/10/19 09:54:04;;;;;;;8.25;3.13;;;;;;;33.39;28.56;100933.06;5030604;28;20032;-68
2022/10/19 09:56:36;;;;;;;7.38;3.65;;;;;;;33.35;28.51;100922.72;5030724;28;20025;-68
2022/10/19 09:59:02;;;;;;;8.85;3.58;;;;;;;32.77;29.18;100939.50;5030552;28;20363;-68
2022/10/19 10:01:36;;;;;;;10.25;4.07;;;;;;;31.95;29.95;100936.16;5030521;28;20057;-68
2022/10/19 10:04:06;;;;;;;5.15;3.13;;;;;;;31.51;30.27;100929.72;5030174;28;20108;-68
2022/10/19 10:06:34;;;;;;;4.93;3.80;;;;;;;30.96;31.22;100919.72;5029231;28;20065;-68
2022/10/19 10:08:59;;;;;;;4.88;3.83;;;;;;;30.38;32.28;100904.31;5030410;28;20104;-68
2022/10/19 10:11:37;;;;;;;8.40;3.85;;;;;;;29.76;33.30;100940.41;5029588;28;20216;-68
2022/10/19 10:14:41;;;;;;;11.18;4.22;;;;;;;28.97;35.04;100940.16;5029256;28;20372;-68
2022/10/19 10:17:20;;;;;;;8.23;4.35;;;;;;;27.53;37.08;100947.75;5027331;28;20507;-71
2022/10/19 10:19:51;;;;;;;6.05;3.97;;;;;;;27.34;37.76;100946.03;5030264;28;20029;-71
2022/10/19 10:22:28;;;;;;;8.43;3.67;;;;;;;26.07;39.53;100941.97;5030142;28;20096;-71
2022/10/19 10:24:55;;;;;;;8.05;3.90;;;;;;;25.42;41.10;100935.88;5028763;28;20391;-71
2022/10/19 10:27:32;;;;;;;7.65;4.78;;;;;;;24.69;42.52;100947.97;5030502;28;20357;-71
2022/10/19 10:29:58;;;;;;;6.03;4.20;;;;;;;24.06;44.21;100948.47;5029827;28;20032;-71
2022/10/19 10:32:24;;;;;;;10.45;4.50;;;;;;;23.69;44.92;100941.56;5028570;28;20045;-71
2022/10/19 10:35:01;;;;;;;9.00;4.95;;;;;;;23.08;46.59;100945.19;5029576;28;20060;-70
2022/10/19 10:37:36;;;;;;;5.32;4.05;;;;;;;22.64;47.24;100932.84;5028388;28;20037;-71
2022/10/19 10:40:03;;;;;;;6.43;4.07;;;;;;;22.50;48.15;100929.16;5029832;28;20403;-71
2022/10/19 10:42:34;;;;;;;7.10;4.05;;;;;;;22.16;49.42;100929.81;5028281;28;20666;-71
2022/10/19 10:45:00;;;;;;;6.65;4.20;;;;;;;21.77;50.06;100914.91;5028011;28;20025;-70
2022/10/19 10:47:27;;;;;;;5.80;4.93;;;;;;;21.55;51.00;100926.78;5030042;28;20041;-70
2022/10/19 10:50:02;;;;;;;10.18;5.25;;;;;;;21.32;51.47;100926.06;5028143;28;20041;-70
2022/10/19 10:52:30;;;;;;;9.48;4.85;;;;;;;21.12;52.04;100912.13;5029660;28;20025;-71
2022/10/19 10:55:01;;;;;;;4.85;3.80;;;;;;;20.90;52.24;100913.03;5029759;28;20132;-70
2022/10/19 10:57:36;;;;;;;9.38;4.53;;;;;;;20.78;53.26;100916.38;5029433;28;20038;-70
2022/10/19 11:00:01;;;;;;;8.18;4.40;;;;;;;20.68;53.82;100921.25;5029191;28;20037;-70
2022/10/19 11:02:55;;;;;;;6.00;4.00;;;;;;;20.44;53.93;100895.06;5029480;28;20104;-70
2022/10/19 11:05:26;;;;;;;7.13;3.57;;;;;;;20.48;53.57;100911.91;5029359;28;20033;-70
2022/10/19 11:08:29;;;;;;;4.55;3.65;;;;;;;20.33;54.34;100908.28;5028969;28;20097;-70
2022/10/19 11:11:19;;;;;;;7.95;4.03;;;;;;;20.21;54.58;100915.22;5026307;28;20033;-70
2022/10/19 11:13:47;;;;;;;4.05;3.25;;;;;;;20.08;55.11;100919.34;5029155;28;20495;-70
2022/10/19 11:16:16;;;;;;;4.45;3.30;;;;;;;20.05;55.04;100911.53;5029048;28;20040;-71
2022/10/19 11:18:47;;;;;;;6.50;3.47;;;;;;;19.98;55.21;100901.53;5029089;28;20387;-70
2022/10/19 11:21:27;;;;;;;7.25;3.55;;;;;;;20.00;55.69;100908.50;5029112;28;20037;-70
2022/10/19 11:24:04;;;;;;;4.57;3.60;;;;;;;20.01;55.77;100904.75;5029030;28;20025;-71
2022/10/19 11:26:41;;;;;;;5.85;3.70;;;;;;;20.00;55.87;100902.22;5029047;28;20483;-67